Time,TemperatureF,DewpointF,PressureIn,WindDirection,WindDirectionDegrees,WindSpeedMPH,WindSpeedGustMPH,Humidity,HourlyPrecipIn,Conditions,Clouds,dailyrainin,SoftwareType,DateUTC
2013-09-30 00:02:00,66.9,62.9,29.20,SE,127,0.0,0.0,87,0.00,,,0.00,LWC V2.10 B1813,2013-09-30 05:02:00,
2013-09-30 00:07:00,66.7,62.7,29.18,SSE,152,0.0,0.0,87,0.00,,,0.00,LWC V2.10 B1813,2013-09-30 05:07:00,
2013-09-30 00:12:00,66.7,62.7,29.18,SSE,149,0.0,0.0,87,0.00,,,0.00,LWC V2.10 B1813,2013-09-30 05:12:00,
2013-09-30 00:17:00,66.7,63.1,29.18,SSE,149,0.0,0.0,88,0.00,,,0.00,LWC V2.10 B1813,2013-09-30 05:17:00,
2013-09-30 00:22:00,66.9,63.2,29.18,SSE,150,0.0,0.0,88,0.00,,,0.00,LWC V2.10 B1813,2013-09-30 05:22:00,
2013-09-30 00:27:00,66.6,62.9,29.18,SW,217,0.0,0.0,88,0.00,,,0.00,LWC V2.10 B1813,2013-09-30 05:27:00,
2013-09-30 00:32:00,66.4,62.7,29.18,SW,217,0.0,0.0,88,0.00,,,0.00,LWC V2.10 B1813,2013-09-30 05:32:00,
2013-09-30 00:37:00,66.2,62.5,29.20,SW,217,0.0,0.0,88,0.00,,,0.00,LWC V2.10 B1813,2013-09-30 05:37:00,
2013-09-30 00:42:00,66.0,62.4,29.20,North,2,2.7,2.7,88,0.00,,,0.00,LWC V2.10 B1813,2013-09-30 05:42:00,
2013-09-30 00:47:00,65.7,62.0,29.20,North,353,0.0,2.2,88,0.00,,,0.00,LWC V2.10 B1813,2013-09-30 05:47:00,
2013-09-30 00:52:00,65.5,61.8,29.18,North,353,0.0,0.0,88,0.00,,,0.00,LWC V2.10 B1813,2013-09-30 05:52:00,
2013-09-30 00:57:00,65.5,61.8,29.18,NNW,332,0.0,0.0,88,0.00,,,0.00,LWC V2.10 B1813,2013-09-30 05:57:00,
2013-09-30 01:02:00,65.5,61.8,29.18,NW,314,2.2,3.6,88,0.00,,,0.00,LWC V2.10 B1813,2013-09-30 06:02:00,
2013-09-30 01:07:00,65.3,61.6,29.18,NW,317,0.0,0.0,88,0.00,,,0.00,LWC V2.10 B1813,2013-09-30 06:07:00,
2013-09-30 01:12:00,65.1,61.5,29.18,NW,317,0.0,0.0,88,0.00,,,0.00,LWC V2.10 B1813,2013-09-30 06:12:00,
2013-09-30 01:17:00,64.9,61.3,29.18,NW,317,0.0,0.0,88,0.00,,,0.00,LWC V2.10 B1813,2013-09-30 06:17:00,
2013-09-30 01:22:00,64.8,61.1,29.18,NW,314,0.0,0.0,88,0.00,,,0.00,LWC V2.10 B1813,2013-09-30 06:22:00,
2013-09-30 01:27:00,64.8,61.1,29.18,NW,321,3.1,3.1,88,0.00,,,0.00,LWC V2.10 B1813,2013-09-30 06:27:00,
2013-09-30 01:32:00,64.8,61.1,29.18,North,353,0.0,0.0,88,0.00,,,0.00,LWC V2.10 B1813,2013-09-30 06:32:00,
2013-09-30 01:37:00,64.8,61.1,29.18,NW,317,0.0,0.0,88,0.00,,,0.00,LWC V2.10 B1813,2013-09-30 06:37:00,
2013-09-30 01:42:00,64.8,61.1,29.18,NW,315,0.0,0.0,88,0.00,,,0.00,LWC V2.10 B1813,2013-09-30 06:42:00,
2013-09-30 01:47:00,64.8,61.1,29.18,NW,315,0.0,0.0,88,0.00,,,0.00,LWC V2.10 B1813,2013-09-30 06:47:00,
2013-09-30 01:52:00,64.6,61.3,29.18,NW,315,0.0,0.0,89,0.00,,,0.00,LWC V2.10 B1813,2013-09-30 06:52:00,
2013-09-30 01:57:00,64.6,61.3,29.18,NW,315,0.0,0.0,89,0.00,,,0.00,LWC V2.10 B1813,2013-09-30 06:57:00,
2013-09-30 02:02:00,64.4,61.1,29.18,NW,315,0.0,0.0,89,0.00,,,0.00,LWC V2.10 B1813,2013-09-30 07:02:00,
2013-09-30 02:07:00,64.2,60.9,29.18,NW,316,0.0,2.7,89,0.00,,,0.00,LWC V2.10 B1813,2013-09-30 07:07:00,
2013-09-30 02:12:00,64.2,60.9,29.18,NW,324,0.0,0.0,89,0.00,,,0.00,LWC V2.10 B1813,2013-09-30 07:12:00,
2013-09-30 02:17:00,64.2,60.9,29.18,NW,319,0.0,0.0,89,0.00,,,0.00,LWC V2.10 B1813,2013-09-30 07:17:00,
2013-09-30 02:22:00,64.0,60.7,29.18,NW,319,0.0,0.0,89,0.00,,,0.00,LWC V2.10 B1813,2013-09-30 07:22:00,
2013-09-30 02:27:00,64.0,60.7,29.18,NW,319,0.0,0.0,89,0.00,,,0.00,LWC V2.10 B1813,2013-09-30 07:27:00,
2013-09-30 02:32:00,64.0,60.7,29.18,NW,318,0.0,0.0,89,0.00,,,0.00,LWC V2.10 B1813,2013-09-30 07:32:00,
2013-09-30 02:37:00,63.9,60.9,29.18,NW,318,0.0,0.0,90,0.00,,,0.00,LWC V2.10 B1813,2013-09-30 07:37:00,
2013-09-30 02:42:00,63.9,60.9,29.18,NW,318,0.0,0.0,90,0.00,,,0.00,LWC V2.10 B1813,2013-09-30 07:42:00,
2013-09-30 02:47:00,63.9,60.9,29.18,NW,318,0.0,0.0,90,0.00,,,0.00,LWC V2.10 B1813,2013-09-30 07:47:00,
2013-09-30 02:52:00,63.9,60.9,29.18,NW,318,0.0,0.0,90,0.00,,,0.00,LWC V2.10 B1813,2013-09-30 07:52:00,
2013-09-30 02:57:00,63.7,60.7,29.18,NW,309,2.2,3.1,90,0.00,,,0.00,LWC V2.10 B1813,2013-09-30 07:57:00,
2013-09-30 03:02:00,63.5,60.5,29.18,NW,306,0.0,0.0,90,0.00,,,0.00,LWC V2.10 B1813,2013-09-30 08:02:00,
2013-09-30 03:07:00,63.5,60.5,29.15,NNW,331,0.0,0.0,90,0.00,,,0.00,LWC V2.10 B1813,2013-09-30 08:07:00,
2013-09-30 03:12:00,63.3,60.3,29.15,NW,317,2.2,3.1,90,0.00,,,0.00,LWC V2.10 B1813,2013-09-30 08:12:00,
2013-09-30 03:17:00,63.3,60.6,29.15,North,357,0.0,2.7,91,0.00,,,0.00,LWC V2.10 B1813,2013-09-30 08:17:00,
2013-09-30 03:22:00,63.3,60.6,29.15,North,353,0.0,0.0,91,0.00,,,0.00,LWC V2.10 B1813,2013-09-30 08:22:00,
2013-09-30 03:27:00,63.3,60.6,29.15,North,353,0.0,0.0,91,0.00,,,0.00,LWC V2.10 B1813,2013-09-30 08:27:00,
2013-09-30 03:32:00,63.3,60.6,29.15,North,353,0.0,0.0,91,0.00,,,0.00,LWC V2.10 B1813,2013-09-30 08:32:00,
2013-09-30 03:37:00,63.3,60.6,29.15,North,353,0.0,0.0,91,0.00,,,0.00,LWC V2.10 B1813,2013-09-30 08:37:00,
2013-09-30 03:42:00,63.1,60.5,29.15,North,353,0.0,0.0,91,0.00,,,0.00,LWC V2.10 B1813,2013-09-30 08:42:00,
2013-09-30 03:47:00,63.1,60.5,29.15,North,353,0.0,0.0,91,0.00,,,0.00,LWC V2.10 B1813,2013-09-30 08:47:00,
2013-09-30 03:52:00,63.0,60.3,29.15,North,353,0.0,0.0,91,0.00,,,0.00,LWC V2.10 B1813,2013-09-30 08:52:00,
2013-09-30 03:57:00,62.8,60.1,29.15,North,353,0.0,0.0,91,0.00,,,0.00,LWC V2.10 B1813,2013-09-30 08:57:00,
2013-09-30 04:02:00,62.8,60.1,29.15,North,353,0.0,0.0,91,0.00,,,0.00,LWC V2.10 B1813,2013-09-30 09:02:00,
2013-09-30 04:07:00,62.6,60.2,29.15,NW,311,3.1,3.1,92,0.00,,,0.00,LWC V2.10 B1813,2013-09-30 09:07:00,
2013-09-30 04:12:00,62.6,60.2,29.15,WNW,298,3.6,4.0,92,0.00,,,0.00,LWC V2.10 B1813,2013-09-30 09:12:00,
2013-09-30 04:17:00,62.4,60.1,29.15,WNW,298,0.0,3.6,92,0.00,,,0.00,LWC V2.10 B1813,2013-09-30 09:17:00,
2013-09-30 04:22:00,62.4,60.1,29.15,WNW,290,3.6,4.0,92,0.00,,,0.00,LWC V2.10 B1813,2013-09-30 09:22:00,
2013-09-30 04:27:00,62.2,59.9,29.15,WNW,287,0.0,3.6,92,0.00,,,0.00,LWC V2.10 B1813,2013-09-30 09:27:00,
2013-09-30 04:32:00,62.2,59.9,29.15,WNW,294,2.2,3.1,92,0.00,,,0.00,LWC V2.10 B1813,2013-09-30 09:32:00,
2013-09-30 04:37:00,62.2,59.9,29.15,WNW,302,2.2,2.7,92,0.00,,,0.00,LWC V2.10 B1813,2013-09-30 09:37:00,
2013-09-30 04:42:00,62.1,59.7,29.15,WNW,302,0.0,0.0,92,0.00,,,0.00,LWC V2.10 B1813,2013-09-30 09:42:00,
2013-09-30 04:47:00,62.1,59.7,29.15,WNW,301,0.0,0.0,92,0.00,,,0.00,LWC V2.10 B1813,2013-09-30 09:47:00,
2013-09-30 04:52:00,62.1,60.0,29.15,WNW,301,0.0,0.0,93,0.00,,,0.00,LWC V2.10 B1813,2013-09-30 09:52:00,
2013-09-30 04:57:00,61.9,59.8,29.15,WNW,282,0.0,3.1,93,0.00,,,0.00,LWC V2.10 B1813,2013-09-30 09:57:00,
2013-09-30 05:02:00,61.9,59.8,29.15,WNW,284,2.2,3.1,93,0.00,,,0.00,LWC V2.10 B1813,2013-09-30 10:02:00,
2013-09-30 05:07:00,61.7,59.7,29.12,WNW,284,0.0,0.0,93,0.00,,,0.00,LWC V2.10 B1813,2013-09-30 10:07:00,
2013-09-30 05:12:00,61.7,59.7,29.12,WNW,284,0.0,0.0,93,0.00,,,0.00,LWC V2.10 B1813,2013-09-30 10:12:00,
2013-09-30 05:17:00,61.5,59.5,29.12,WNW,285,3.1,3.6,93,0.00,,,0.00,LWC V2.10 B1813,2013-09-30 10:17:00,
2013-09-30 05:22:00,61.5,59.5,29.12,WNW,302,2.2,3.6,93,0.00,,,0.00,LWC V2.10 B1813,2013-09-30 10:22:00,
2013-09-30 05:27:00,61.3,59.3,29.12,NW,310,2.2,3.6,93,0.00,,,0.00,LWC V2.10 B1813,2013-09-30 10:27:00,
2013-09-30 05:32:00,61.3,59.3,29.12,NW,323,2.2,4.0,93,0.00,,,0.00,LWC V2.10 B1813,2013-09-30 10:32:00,
2013-09-30 05:37:00,61.2,59.1,29.12,WNW,297,0.0,0.0,93,0.00,,,0.00,LWC V2.10 B1813,2013-09-30 10:37:00,
2013-09-30 05:42:00,61.2,59.1,29.12,WNW,297,0.0,0.0,93,0.00,,,0.00,LWC V2.10 B1813,2013-09-30 10:42:00,
2013-09-30 05:47:00,61.0,58.9,29.12,NW,311,3.1,4.0,93,0.00,,,0.00,LWC V2.10 B1813,2013-09-30 10:47:00,
2013-09-30 05:52:00,60.8,58.8,29.12,NW,313,2.7,3.6,93,0.00,,,0.00,LWC V2.10 B1813,2013-09-30 10:52:00,
2013-09-30 05:57:00,60.8,58.8,29.12,WNW,288,2.7,3.1,93,0.00,,,0.00,LWC V2.10 B1813,2013-09-30 10:57:00,
2013-09-30 06:02:00,60.8,58.8,29.12,NW,304,3.1,4.0,93,0.00,,,0.00,LWC V2.10 B1813,2013-09-30 11:02:00,
2013-09-30 06:07:00,60.6,58.9,29.15,WNW,301,2.2,2.2,94,0.00,,,0.00,LWC V2.10 B1813,2013-09-30 11:07:00,
2013-09-30 06:12:00,60.6,58.9,29.15,NW,318,0.0,0.0,94,0.00,,,0.00,LWC V2.10 B1813,2013-09-30 11:12:00,
2013-09-30 06:17:00,60.4,58.7,29.15,NW,318,0.0,0.0,94,0.00,,,0.00,LWC V2.10 B1813,2013-09-30 11:17:00,
2013-09-30 06:22:00,60.4,58.7,29.15,WNW,284,0.0,0.0,94,0.00,,,0.00,LWC V2.10 B1813,2013-09-30 11:22:00,
2013-09-30 06:27:00,60.4,58.7,29.15,WNW,299,3.1,4.0,94,0.00,,,0.00,LWC V2.10 B1813,2013-09-30 11:27:00,
2013-09-30 06:32:00,60.3,58.5,29.15,WNW,298,3.6,3.6,94,0.00,,,0.00,LWC V2.10 B1813,2013-09-30 11:32:00,
2013-09-30 06:37:00,60.3,58.5,29.15,NW,306,2.2,3.6,94,0.00,,,0.00,LWC V2.10 B1813,2013-09-30 11:37:00,
2013-09-30 06:42:00,60.1,58.3,29.15,NW,306,3.1,3.1,94,0.00,,,0.00,LWC V2.10 B1813,2013-09-30 11:42:00,
2013-09-30 06:47:00,60.1,58.3,29.15,WNW,294,0.0,0.0,94,0.00,,,0.00,LWC V2.10 B1813,2013-09-30 11:47:00,
2013-09-30 06:52:00,60.3,58.5,29.15,WNW,294,0.0,0.0,94,0.00,,,0.00,LWC V2.10 B1813,2013-09-30 11:52:00,
2013-09-30 06:57:00,60.3,58.5,29.15,WNW,286,2.7,2.7,94,0.00,,,0.00,LWC V2.10 B1813,2013-09-30 11:57:00,
2013-09-30 07:02:00,60.4,58.7,29.15,WNW,296,3.1,3.6,94,0.00,,,0.00,LWC V2.10 B1813,2013-09-30 12:02:00,
2013-09-30 07:07:00,60.4,58.7,29.15,WNW,285,2.7,3.6,94,0.00,,,0.00,LWC V2.10 B1813,2013-09-30 12:07:00,
2013-09-30 07:12:00,60.4,58.7,29.15,WNW,284,2.2,3.1,94,0.00,,,0.00,LWC V2.10 B1813,2013-09-30 12:12:00,
2013-09-30 07:17:00,60.3,58.5,29.15,WNW,299,2.2,2.7,94,0.00,,,0.00,LWC V2.10 B1813,2013-09-30 12:17:00,
2013-09-30 07:22:00,60.3,58.5,29.15,WNW,295,0.0,3.1,94,0.00,,,0.00,LWC V2.10 B1813,2013-09-30 12:22:00,
2013-09-30 07:27:00,60.1,58.3,29.15,NW,323,0.0,3.1,94,0.00,,,0.00,LWC V2.10 B1813,2013-09-30 12:27:00,
2013-09-30 07:32:00,60.1,58.3,29.15,NW,319,0.0,3.1,94,0.00,,,0.00,LWC V2.10 B1813,2013-09-30 12:32:00,
2013-09-30 07:37:00,60.1,58.3,29.15,WNW,290,2.2,3.1,94,0.00,,,0.00,LWC V2.10 B1813,2013-09-30 12:37:00,
2013-09-30 07:42:00,59.9,58.2,29.15,NW,312,0.0,3.1,94,0.00,,,0.00,LWC V2.10 B1813,2013-09-30 12:42:00,
2013-09-30 07:47:00,59.7,58.0,29.15,NW,304,0.0,4.0,94,0.00,,,0.00,LWC V2.10 B1813,2013-09-30 12:47:00,
2013-09-30 07:52:00,59.7,58.0,29.15,WNW,297,0.0,3.1,94,0.00,,,0.00,LWC V2.10 B1813,2013-09-30 12:52:00,
2013-09-30 07:57:00,59.7,58.0,29.15,NW,315,2.2,3.6,94,0.00,,,0.00,LWC V2.10 B1813,2013-09-30 12:57:00,
2013-09-30 08:02:00,59.9,58.2,29.15,NW,313,2.2,2.7,94,0.00,,,0.00,LWC V2.10 B1813,2013-09-30 13:02:00,
2013-09-30 08:07:00,59.9,58.2,29.15,NW,305,0.0,0.0,94,0.00,,,0.00,LWC V2.10 B1813,2013-09-30 13:07:00,
2013-09-30 08:12:00,60.1,58.3,29.15,WNW,302,0.0,2.2,94,0.00,,,0.00,LWC V2.10 B1813,2013-09-30 13:12:00,
2013-09-30 08:17:00,60.1,58.3,29.15,NW,316,0.0,2.7,94,0.00,,,0.00,LWC V2.10 B1813,2013-09-30 13:17:00,
2013-09-30 08:22:00,60.1,58.6,29.15,NW,316,0.0,0.0,95,0.00,,,0.00,LWC V2.10 B1813,2013-09-30 13:22:00,
2013-09-30 08:27:00,60.3,58.8,29.15,NW,314,0.0,0.0,95,0.00,,,0.00,LWC V2.10 B1813,2013-09-30 13:27:00,
2013-09-30 08:32:00,60.3,58.8,29.15,WNW,288,2.7,2.7,95,0.00,,,0.00,LWC V2.10 B1813,2013-09-30 13:32:00,
2013-09-30 08:37:00,60.4,59.0,29.15,West,275,0.0,0.0,95,0.00,,,0.00,LWC V2.10 B1813,2013-09-30 13:37:00,
2013-09-30 08:42:00,60.3,58.8,29.15,West,278,0.0,2.7,95,0.00,,,0.00,LWC V2.10 B1813,2013-09-30 13:42:00,
2013-09-30 08:47:00,60.4,59.0,29.15,West,263,2.2,2.7,95,0.00,,,0.00,LWC V2.10 B1813,2013-09-30 13:47:00,
2013-09-30 08:52:00,60.8,59.1,29.15,West,278,0.0,0.0,94,0.00,,,0.00,LWC V2.10 B1813,2013-09-30 13:52:00,
2013-09-30 08:57:00,60.6,59.2,29.15,NW,322,0.0,2.2,95,0.00,,,0.00,LWC V2.10 B1813,2013-09-30 13:57:00,
2013-09-30 09:02:00,60.8,59.1,29.15,NW,304,0.0,0.0,94,0.00,,,0.00,LWC V2.10 B1813,2013-09-30 14:02:00,
2013-09-30 09:07:00,61.0,59.2,29.15,NW,318,2.2,2.2,94,0.00,,,0.00,LWC V2.10 B1813,2013-09-30 14:07:00,
2013-09-30 09:12:00,60.8,59.4,29.15,West,276,2.7,2.7,95,0.00,,,0.00,LWC V2.10 B1813,2013-09-30 14:12:00,
2013-09-30 09:17:00,61.0,59.5,29.15,West,277,3.1,3.6,95,0.00,,,0.00,LWC V2.10 B1813,2013-09-30 14:17:00,
2013-09-30 09:22:00,61.0,59.5,29.15,WNW,292,4.0,4.0,95,0.00,,,0.00,LWC V2.10 B1813,2013-09-30 14:22:00,
2013-09-30 09:27:00,61.0,59.5,29.15,West,280,5.8,6.3,95,0.00,,,0.00,LWC V2.10 B1813,2013-09-30 14:27:00,
2013-09-30 09:32:00,61.3,59.9,29.15,SW,227,2.2,2.2,95,0.00,,,0.00,LWC V2.10 B1813,2013-09-30 14:32:00,
2013-09-30 09:37:00,61.5,60.1,29.15,WNW,287,5.4,5.4,95,0.00,,,0.00,LWC V2.10 B1813,2013-09-30 14:37:00,
2013-09-30 09:42:00,61.3,59.9,29.15,West,281,4.0,6.3,95,0.00,,,0.00,LWC V2.10 B1813,2013-09-30 14:42:00,
2013-09-30 09:47:00,61.7,60.2,29.15,West,280,3.1,4.0,95,0.00,,,0.00,LWC V2.10 B1813,2013-09-30 14:47:00,
2013-09-30 09:52:00,62.1,60.6,29.15,West,270,4.5,4.5,95,0.00,,,0.00,LWC V2.10 B1813,2013-09-30 14:52:00,
2013-09-30 09:57:00,62.4,61.0,29.15,WSW,245,2.7,3.6,95,0.00,,,0.00,LWC V2.10 B1813,2013-09-30 14:57:00,
2013-09-30 10:02:00,63.3,61.9,29.15,West,268,3.1,3.6,95,0.00,,,0.00,LWC V2.10 B1813,2013-09-30 15:02:00,
2013-09-30 10:07:00,63.0,61.5,29.15,West,278,3.1,4.9,95,0.00,,,0.00,LWC V2.10 B1813,2013-09-30 15:07:00,
2013-09-30 10:12:00,63.7,62.2,29.15,WNW,289,2.7,3.1,95,0.00,,,0.00,LWC V2.10 B1813,2013-09-30 15:12:00,
2013-09-30 10:17:00,64.4,62.9,29.15,West,276,0.0,2.7,95,0.00,,,0.00,LWC V2.10 B1813,2013-09-30 15:17:00,
2013-09-30 10:22:00,64.9,63.5,29.15,West,264,3.6,3.6,95,0.00,,,0.00,LWC V2.10 B1813,2013-09-30 15:22:00,
2013-09-30 10:27:00,65.5,64.0,29.15,West,265,4.0,5.8,95,0.00,,,0.00,LWC V2.10 B1813,2013-09-30 15:27:00,
2013-09-30 10:32:00,66.6,64.8,29.15,West,274,4.9,5.4,94,0.00,,,0.00,LWC V2.10 B1813,2013-09-30 15:32:00,
2013-09-30 10:37:00,67.1,65.3,29.15,WNW,286,4.0,5.4,94,0.00,,,0.00,LWC V2.10 B1813,2013-09-30 15:37:00,
2013-09-30 10:42:00,68.4,66.3,29.15,SW,223,3.1,4.0,93,0.00,,,0.00,LWC V2.10 B1813,2013-09-30 15:42:00,
2013-09-30 10:47:00,69.1,66.7,29.15,WNW,290,3.6,4.9,92,0.00,,,0.00,LWC V2.10 B1813,2013-09-30 15:47:00,
2013-09-30 10:52:00,69.3,66.5,29.15,West,259,3.1,4.9,91,0.00,,,0.00,LWC V2.10 B1813,2013-09-30 15:52:00,
2013-09-30 10:57:00,69.8,67.0,29.15,WSW,237,2.7,3.1,91,0.00,,,0.00,LWC V2.10 B1813,2013-09-30 15:57:00,
2013-09-30 11:02:00,70.5,67.4,29.15,WNW,283,0.0,2.2,90,0.00,,,0.00,LWC V2.10 B1813,2013-09-30 16:02:00,
2013-09-30 11:07:00,70.7,67.3,29.15,SSW,196,2.2,3.1,89,0.00,,,0.00,LWC V2.10 B1813,2013-09-30 16:07:00,
2013-09-30 11:12:00,71.6,67.8,29.15,WSW,253,0.0,3.6,88,0.00,,,0.00,LWC V2.10 B1813,2013-09-30 16:12:00,
2013-09-30 11:17:00,72.1,68.0,29.15,West,279,3.1,3.1,87,0.00,,,0.00,LWC V2.10 B1813,2013-09-30 16:17:00,
2013-09-30 11:22:00,72.9,67.7,29.15,SW,217,0.0,0.0,84,0.00,,,0.00,LWC V2.10 B1813,2013-09-30 16:22:00,
2013-09-30 11:27:00,73.0,66.9,29.15,SW,216,3.6,4.9,81,0.00,,,0.00,LWC V2.10 B1813,2013-09-30 16:27:00,
2013-09-30 11:32:00,73.8,66.5,29.15,WSW,253,2.2,3.1,78,0.00,,,0.00,LWC V2.10 B1813,2013-09-30 16:32:00,
2013-09-30 11:37:00,73.9,65.5,29.15,WSW,246,0.0,3.6,75,0.00,,,0.00,LWC V2.10 B1813,2013-09-30 16:37:00,
2013-09-30 11:42:00,75.0,66.2,29.15,West,266,3.1,4.0,74,0.00,,,0.00,LWC V2.10 B1813,2013-09-30 16:42:00,
2013-09-30 11:47:00,75.7,66.5,29.15,WSW,237,4.0,4.0,73,0.00,,,0.00,LWC V2.10 B1813,2013-09-30 16:47:00,
2013-09-30 11:52:00,75.9,66.2,29.15,SSW,213,0.0,4.0,72,0.00,,,0.00,LWC V2.10 B1813,2013-09-30 16:52:00,
2013-09-30 11:57:00,76.8,67.5,29.15,East,84,0.0,2.7,73,0.00,,,0.00,LWC V2.10 B1813,2013-09-30 16:57:00,
2013-09-30 12:02:00,76.5,65.9,29.15,SE,146,3.1,3.1,70,0.00,,,0.00,LWC V2.10 B1813,2013-09-30 17:02:00,
2013-09-30 12:07:00,76.6,65.3,29.15,West,269,2.2,4.0,68,0.00,,,0.00,LWC V2.10 B1813,2013-09-30 17:07:00,
2013-09-30 12:12:00,76.8,63.7,29.15,West,261,2.7,3.6,64,0.00,,,0.00,LWC V2.10 B1813,2013-09-30 17:12:00,
2013-09-30 12:17:00,77.5,61.1,29.15,SW,224,2.7,5.4,57,0.00,,,0.00,LWC V2.10 B1813,2013-09-30 17:17:00,
2013-09-30 12:22:00,78.1,59.5,29.15,SSE,164,5.4,5.4,53,0.00,,,0.00,LWC V2.10 B1813,2013-09-30 17:22:00,
2013-09-30 12:27:00,78.3,58.1,29.15,SSW,203,4.9,4.9,50,0.00,,,0.00,LWC V2.10 B1813,2013-09-30 17:27:00,
2013-09-30 12:32:00,78.6,59.0,29.15,SSW,195,2.7,4.9,51,0.00,,,0.00,LWC V2.10 B1813,2013-09-30 17:32:00,
2013-09-30 12:37:00,80.1,60.3,29.15,SSW,213,2.2,3.6,51,0.00,,,0.00,LWC V2.10 B1813,2013-09-30 17:37:00,
2013-09-30 12:42:00,79.9,59.0,29.15,SW,215,0.0,2.2,49,0.00,,,0.00,LWC V2.10 B1813,2013-09-30 17:42:00,
2013-09-30 12:47:00,81.0,58.8,29.15,South,179,3.1,3.6,47,0.00,,,0.00,LWC V2.10 B1813,2013-09-30 17:47:00,
2013-09-30 12:52:00,81.0,59.4,29.12,West,270,3.1,3.6,48,0.00,,,0.00,LWC V2.10 B1813,2013-09-30 17:52:00,
2013-09-30 12:57:00,80.8,58.0,29.12,SW,233,3.1,5.4,46,0.00,,,0.00,LWC V2.10 B1813,2013-09-30 17:57:00,
2013-09-30 13:02:00,80.8,58.0,29.12,WSW,246,2.2,4.0,46,0.00,,,0.00,LWC V2.10 B1813,2013-09-30 18:02:00,
2013-09-30 13:07:00,81.5,58.1,29.12,South,176,3.6,5.8,45,0.00,,,0.00,LWC V2.10 B1813,2013-09-30 18:07:00,
2013-09-30 13:12:00,81.5,58.1,29.12,West,259,2.7,4.9,45,0.00,,,0.00,LWC V2.10 B1813,2013-09-30 18:12:00,
2013-09-30 13:17:00,82.2,58.7,29.12,SW,221,3.1,3.1,45,0.00,,,0.00,LWC V2.10 B1813,2013-09-30 18:17:00,
2013-09-30 13:22:00,81.7,57.6,29.12,WSW,239,6.3,6.3,44,0.00,,,0.00,LWC V2.10 B1813,2013-09-30 18:22:00,
2013-09-30 13:27:00,80.8,56.2,29.12,WSW,240,3.1,5.8,43,0.00,,,0.00,LWC V2.10 B1813,2013-09-30 18:27:00,
2013-09-30 13:32:00,81.9,58.4,29.12,WNW,295,2.7,4.9,45,0.00,,,0.00,LWC V2.10 B1813,2013-09-30 18:32:00,
2013-09-30 13:37:00,82.0,57.9,29.12,WNW,290,3.1,4.9,44,0.00,,,0.00,LWC V2.10 B1813,2013-09-30 18:37:00,
2013-09-30 13:42:00,81.7,55.7,29.12,SW,230,2.2,5.4,41,0.00,,,0.00,LWC V2.10 B1813,2013-09-30 18:42:00,
2013-09-30 13:47:00,82.0,56.0,29.12,WSW,256,4.0,5.4,41,0.00,,,0.00,LWC V2.10 B1813,2013-09-30 18:47:00,
2013-09-30 13:52:00,82.6,55.1,29.12,WSW,258,3.6,5.4,39,0.00,,,0.00,LWC V2.10 B1813,2013-09-30 18:52:00,
2013-09-30 13:57:00,83.5,56.6,29.12,NW,311,3.6,3.6,40,0.00,,,0.00,LWC V2.10 B1813,2013-09-30 18:57:00,
2013-09-30 14:02:00,83.5,55.2,29.12,SW,234,5.4,6.3,38,0.00,,,0.00,LWC V2.10 B1813,2013-09-30 19:02:00,
2013-09-30 14:07:00,82.8,55.2,29.09,SW,222,4.9,4.9,39,0.00,,,0.00,LWC V2.10 B1813,2013-09-30 19:07:00,
2013-09-30 14:12:00,83.5,56.6,29.09,WSW,255,2.7,2.7,40,0.00,,,0.00,LWC V2.10 B1813,2013-09-30 19:12:00,
2013-09-30 14:17:00,83.7,56.0,29.09,West,271,6.7,6.7,39,0.00,,,0.00,LWC V2.10 B1813,2013-09-30 19:17:00,
2013-09-30 14:22:00,83.1,54.1,29.09,SW,236,4.0,4.9,37,0.00,,,0.00,LWC V2.10 B1813,2013-09-30 19:22:00,
2013-09-30 14:27:00,83.8,56.2,29.09,SW,233,0.0,2.7,39,0.00,,,0.00,LWC V2.10 B1813,2013-09-30 19:27:00,
2013-09-30 14:32:00,84.2,55.1,29.09,ESE,105,4.9,4.9,37,0.00,,,0.00,LWC V2.10 B1813,2013-09-30 19:32:00,
2013-09-30 14:37:00,83.8,54.8,29.09,South,187,0.0,2.7,37,0.00,,,0.00,LWC V2.10 B1813,2013-09-30 19:37:00,
2013-09-30 14:42:00,84.6,55.4,29.09,WNW,297,5.4,7.6,37,0.00,,,0.00,LWC V2.10 B1813,2013-09-30 19:42:00,
2013-09-30 14:47:00,84.7,55.5,29.09,WNW,295,5.8,5.8,37,0.00,,,0.00,LWC V2.10 B1813,2013-09-30 19:47:00,
2013-09-30 14:52:00,84.6,55.4,29.09,WSW,258,0.0,0.0,37,0.00,,,0.00,LWC V2.10 B1813,2013-09-30 19:52:00,
2013-09-30 14:57:00,85.6,56.3,29.09,West,281,3.6,3.6,37,0.00,,,0.00,LWC V2.10 B1813,2013-09-30 19:57:00,
2013-09-30 15:02:00,85.8,56.5,29.09,NW,305,4.9,4.9,37,0.00,,,0.00,LWC V2.10 B1813,2013-09-30 20:02:00,
2013-09-30 15:07:00,86.0,55.9,29.09,West,263,3.6,4.9,36,0.00,,,0.00,LWC V2.10 B1813,2013-09-30 20:07:00,
2013-09-30 15:12:00,86.2,56.1,29.09,West,265,3.6,4.0,36,0.00,,,0.00,LWC V2.10 B1813,2013-09-30 20:12:00,
2013-09-30 15:17:00,86.0,54.3,29.09,SW,225,4.0,5.8,34,0.00,,,0.00,LWC V2.10 B1813,2013-09-30 20:17:00,
2013-09-30 15:22:00,85.8,55.0,29.09,WSW,250,3.1,4.0,35,0.00,,,0.00,LWC V2.10 B1813,2013-09-30 20:22:00,
2013-09-30 15:27:00,85.5,53.9,29.09,WSW,239,2.7,8.7,34,0.00,,,0.00,LWC V2.10 B1813,2013-09-30 20:27:00,
2013-09-30 15:32:00,86.4,53.8,29.09,SW,218,5.8,6.3,33,0.00,,,0.00,LWC V2.10 B1813,2013-09-30 20:32:00,
2013-09-30 15:37:00,86.9,55.9,29.06,SW,223,2.2,2.7,35,0.00,,,0.00,LWC V2.10 B1813,2013-09-30 20:37:00,
2013-09-30 15:42:00,86.7,54.1,29.06,WNW,284,4.9,6.3,33,0.00,,,0.00,LWC V2.10 B1813,2013-09-30 20:42:00,
2013-09-30 15:47:00,86.5,54.8,29.06,SW,236,0.0,2.2,34,0.00,,,0.00,LWC V2.10 B1813,2013-09-30 20:47:00,
2013-09-30 15:52:00,86.5,53.1,29.09,South,191,4.0,4.9,32,0.00,,,0.00,LWC V2.10 B1813,2013-09-30 20:52:00,
2013-09-30 15:57:00,86.0,52.7,29.09,South,188,3.6,3.6,32,0.00,,,0.00,LWC V2.10 B1813,2013-09-30 20:57:00,
2013-09-30 16:02:00,86.4,52.1,29.09,South,176,3.1,4.9,31,0.00,,,0.00,LWC V2.10 B1813,2013-09-30 21:02:00,
2013-09-30 16:07:00,86.4,53.0,29.06,SW,223,0.0,3.6,32,0.00,,,0.00,LWC V2.10 B1813,2013-09-30 21:07:00,
2013-09-30 16:12:00,86.9,53.5,29.06,NW,308,3.6,3.6,32,0.00,,,0.00,LWC V2.10 B1813,2013-09-30 21:12:00,
2013-09-30 16:17:00,87.8,54.2,29.06,West,273,0.0,0.0,32,0.00,,,0.00,LWC V2.10 B1813,2013-09-30 21:17:00,
2013-09-30 16:22:00,88.0,53.5,29.06,South,189,0.0,4.0,31,0.00,,,0.00,LWC V2.10 B1813,2013-09-30 21:22:00,
2013-09-30 16:27:00,88.0,52.6,29.06,South,181,3.1,3.6,30,0.00,,,0.00,LWC V2.10 B1813,2013-09-30 21:27:00,
2013-09-30 16:32:00,88.2,52.8,29.06,SSW,193,2.2,2.2,30,0.00,,,0.00,LWC V2.10 B1813,2013-09-30 21:32:00,
2013-09-30 16:37:00,88.0,51.7,29.06,SW,218,3.1,5.8,29,0.00,,,0.00,LWC V2.10 B1813,2013-09-30 21:37:00,
2013-09-30 16:42:00,89.1,53.5,29.06,WSW,241,0.0,0.0,30,0.00,,,0.00,LWC V2.10 B1813,2013-09-30 21:42:00,
2013-09-30 16:47:00,89.2,54.6,29.06,North,10,3.1,3.1,31,0.00,,,0.00,LWC V2.10 B1813,2013-09-30 21:47:00,
2013-09-30 16:52:00,88.7,54.1,29.06,SSE,147,6.3,6.3,31,0.00,,,0.00,LWC V2.10 B1813,2013-09-30 21:52:00,
2013-09-30 16:57:00,87.8,52.5,29.06,SSE,150,2.2,3.1,30,0.00,,,0.00,LWC V2.10 B1813,2013-09-30 21:57:00,
2013-09-30 17:02:00,88.0,53.5,29.06,SSE,167,2.2,3.6,31,0.00,,,0.00,LWC V2.10 B1813,2013-09-30 22:02:00,
2013-09-30 17:07:00,87.6,54.1,29.06,ESE,117,2.2,3.1,32,0.00,,,0.00,LWC V2.10 B1813,2013-09-30 22:07:00,
2013-09-30 17:12:00,88.0,53.5,29.06,ESE,107,3.1,3.1,31,0.00,,,0.00,LWC V2.10 B1813,2013-09-30 22:12:00,
2013-09-30 17:17:00,87.8,54.2,29.06,ESE,102,3.1,3.1,32,0.00,,,0.00,LWC V2.10 B1813,2013-09-30 22:17:00,
2013-09-30 17:22:00,87.8,53.4,29.06,East,91,2.7,3.1,31,0.00,,,0.00,LWC V2.10 B1813,2013-09-30 22:22:00,
2013-09-30 17:27:00,88.2,53.7,29.06,East,94,4.0,4.0,31,0.00,,,0.00,LWC V2.10 B1813,2013-09-30 22:27:00,
2013-09-30 17:32:00,88.3,53.8,29.06,SSE,156,0.0,0.0,31,0.00,,,0.00,LWC V2.10 B1813,2013-09-30 22:32:00,
2013-09-30 17:37:00,87.6,53.2,29.06,SSE,160,2.7,3.6,31,0.00,,,0.00,LWC V2.10 B1813,2013-09-30 22:37:00,
2013-09-30 17:42:00,87.8,53.4,29.06,ESE,104,2.7,3.1,31,0.00,,,0.00,LWC V2.10 B1813,2013-09-30 22:42:00,
2013-09-30 17:47:00,87.1,52.7,29.06,East,84,2.2,4.9,31,0.00,,,0.00,LWC V2.10 B1813,2013-09-30 22:47:00,
2013-09-30 17:52:00,87.3,53.8,29.06,NE,47,0.0,3.1,32,0.00,,,0.00,LWC V2.10 B1813,2013-09-30 22:52:00,
2013-09-30 17:57:00,87.3,53.8,29.06,ENE,64,0.0,0.0,32,0.00,,,0.00,LWC V2.10 B1813,2013-09-30 22:57:00,
2013-09-30 18:02:00,87.3,52.9,29.06,East,81,0.0,2.7,31,0.00,,,0.00,LWC V2.10 B1813,2013-09-30 23:02:00,
2013-09-30 18:07:00,87.1,52.7,29.06,East,87,3.1,3.6,31,0.00,,,0.00,LWC V2.10 B1813,2013-09-30 23:07:00,
2013-09-30 18:12:00,86.7,52.4,29.06,East,98,2.7,4.0,31,0.00,,,0.00,LWC V2.10 B1813,2013-09-30 23:12:00,
2013-09-30 18:17:00,86.4,52.1,29.06,ESE,103,3.1,4.5,31,0.00,,,0.00,LWC V2.10 B1813,2013-09-30 23:17:00,
2013-09-30 18:22:00,86.0,51.8,29.06,East,96,2.2,2.7,31,0.00,,,0.00,LWC V2.10 B1813,2013-09-30 23:22:00,
2013-09-30 18:27:00,85.5,52.2,29.06,East,80,3.1,5.4,32,0.00,,,0.00,LWC V2.10 B1813,2013-09-30 23:27:00,
2013-09-30 18:32:00,85.1,51.9,29.06,East,86,3.1,3.1,32,0.00,,,0.00,LWC V2.10 B1813,2013-09-30 23:32:00,
2013-09-30 18:37:00,84.7,51.6,29.06,ESE,106,3.6,5.8,32,0.00,,,0.00,LWC V2.10 B1813,2013-09-30 23:37:00,
2013-09-30 18:42:00,84.4,51.3,29.06,ENE,76,2.2,4.9,32,0.00,,,0.00,LWC V2.10 B1813,2013-09-30 23:42:00,
2013-09-30 18:47:00,84.0,51.8,29.06,East,97,3.1,3.6,33,0.00,,,0.00,LWC V2.10 B1813,2013-09-30 23:47:00,
2013-09-30 18:52:00,83.5,51.3,29.06,East,88,3.6,4.9,33,0.00,,,0.00,LWC V2.10 B1813,2013-09-30 23:52:00,
2013-09-30 18:57:00,83.1,51.0,29.06,East,91,4.0,5.8,33,0.00,,,0.00,LWC V2.10 B1813,2013-09-30 23:57:00,
2013-09-30 19:02:00,82.4,51.2,29.06,ESE,109,2.7,5.8,34,0.00,,,0.00,LWC V2.10 B1813,2013-10-01 00:02:00,
2013-09-30 19:07:00,81.7,51.3,29.06,East,91,4.0,5.8,35,0.00,,,0.00,LWC V2.10 B1813,2013-10-01 00:07:00,
2013-09-30 19:12:00,81.1,51.6,29.06,East,83,4.0,4.9,36,0.00,,,0.00,LWC V2.10 B1813,2013-10-01 00:12:00,
2013-09-30 19:17:00,80.4,51.7,29.06,East,101,3.6,5.8,37,0.00,,,0.00,LWC V2.10 B1813,2013-10-01 00:17:00,
2013-09-30 19:22:00,79.9,52.0,29.06,ESE,102,4.5,6.3,38,0.00,,,0.00,LWC V2.10 B1813,2013-10-01 00:22:00,
2013-09-30 19:27:00,79.5,52.4,29.06,East,95,3.6,5.4,39,0.00,,,0.00,LWC V2.10 B1813,2013-10-01 00:27:00,
2013-09-30 19:32:00,79.2,52.7,29.06,ENE,64,4.9,6.3,40,0.00,,,0.00,LWC V2.10 B1813,2013-10-01 00:32:00,
2013-09-30 19:37:00,79.0,52.6,29.06,ESE,118,3.6,6.3,40,0.00,,,0.00,LWC V2.10 B1813,2013-10-01 00:37:00,
2013-09-30 19:42:00,78.8,52.4,29.06,East,87,3.1,6.7,40,0.00,,,0.00,LWC V2.10 B1813,2013-10-01 00:42:00,
2013-09-30 19:47:00,78.6,52.9,29.06,SE,146,4.0,6.3,41,0.00,,,0.00,LWC V2.10 B1813,2013-10-01 00:47:00,
2013-09-30 19:52:00,78.3,53.3,29.06,East,97,4.0,5.8,42,0.00,,,0.00,LWC V2.10 B1813,2013-10-01 00:52:00,
2013-09-30 19:57:00,78.1,53.7,29.06,East,100,3.1,5.4,43,0.00,,,0.00,LWC V2.10 B1813,2013-10-01 00:57:00,
2013-09-30 20:02:00,77.9,53.6,29.06,ENE,74,2.7,5.8,43,0.00,,,0.00,LWC V2.10 B1813,2013-10-01 01:02:00,
2013-09-30 20:07:00,77.5,53.9,29.09,East,89,4.9,4.9,44,0.00,,,0.00,LWC V2.10 B1813,2013-10-01 01:07:00,
2013-09-30 20:12:00,77.5,53.9,29.09,East,96,3.1,5.4,44,0.00,,,0.00,LWC V2.10 B1813,2013-10-01 01:12:00,
2013-09-30 20:17:00,77.4,54.3,29.09,ESE,116,2.7,4.0,45,0.00,,,0.00,LWC V2.10 B1813,2013-10-01 01:17:00,
2013-09-30 20:22:00,77.4,54.3,29.09,SSE,147,4.0,4.0,45,0.00,,,0.00,LWC V2.10 B1813,2013-10-01 01:22:00,
2013-09-30 20:27:00,77.2,54.2,29.09,East,84,5.4,5.4,45,0.00,,,0.00,LWC V2.10 B1813,2013-10-01 01:27:00,
2013-09-30 20:32:00,77.2,54.2,29.09,East,93,3.6,4.9,45,0.00,,,0.00,LWC V2.10 B1813,2013-10-01 01:32:00,
2013-09-30 20:37:00,77.0,54.0,29.09,SE,124,5.8,6.3,45,0.00,,,0.00,LWC V2.10 B1813,2013-10-01 01:37:00,
2013-09-30 20:42:00,77.0,54.0,29.09,SE,124,3.1,6.7,45,0.00,,,0.00,LWC V2.10 B1813,2013-10-01 01:42:00,
2013-09-30 20:47:00,76.8,54.4,29.09,East,95,4.0,5.8,46,0.00,,,0.00,LWC V2.10 B1813,2013-10-01 01:47:00,
2013-09-30 20:52:00,76.8,54.4,29.09,SSE,148,3.6,5.8,46,0.00,,,0.00,LWC V2.10 B1813,2013-10-01 01:52:00,
2013-09-30 20:57:00,76.6,54.3,29.09,East,99,4.9,6.3,46,0.00,,,0.00,LWC V2.10 B1813,2013-10-01 01:57:00,
2013-09-30 21:03:00,76.5,54.1,29.09,ESE,111,3.1,4.0,46,0.00,,,0.00,LWC V2.10 B1813,2013-10-01 02:03:00,
2013-09-30 21:08:00,76.3,54.5,29.09,ENE,76,3.6,5.4,47,0.00,,,0.00,LWC V2.10 B1813,2013-10-01 02:08:00,
2013-09-30 21:13:00,76.5,54.1,29.09,ESE,113,4.0,4.5,46,0.00,,,0.00,LWC V2.10 B1813,2013-10-01 02:13:00,
2013-09-30 21:18:00,76.5,54.1,29.09,SE,129,4.0,5.8,46,0.00,,,0.00,LWC V2.10 B1813,2013-10-01 02:18:00,
2013-09-30 21:23:00,76.5,54.1,29.09,East,90,3.1,5.8,46,0.00,,,0.00,LWC V2.10 B1813,2013-10-01 02:23:00,
2013-09-30 21:28:00,76.3,54.0,29.09,ESE,102,3.6,5.8,46,0.00,,,0.00,LWC V2.10 B1813,2013-10-01 02:28:00,
2013-09-30 21:33:00,76.3,54.0,29.09,East,79,3.6,6.3,46,0.00,,,0.00,LWC V2.10 B1813,2013-10-01 02:33:00,
2013-09-30 21:38:00,76.3,54.0,29.09,ENE,71,2.7,4.0,46,0.00,,,0.00,LWC V2.10 B1813,2013-10-01 02:38:00,
2013-09-30 21:43:00,76.3,54.0,29.09,East,87,3.1,4.9,46,0.00,,,0.00,LWC V2.10 B1813,2013-10-01 02:43:00,
2013-09-30 21:48:00,76.1,53.2,29.09,East,86,2.7,5.4,45,0.00,,,0.00,LWC V2.10 B1813,2013-10-01 02:48:00,
2013-09-30 21:53:00,76.1,53.2,29.09,ESE,104,3.1,5.4,45,0.00,,,0.00,LWC V2.10 B1813,2013-10-01 02:53:00,
2013-09-30 21:58:00,75.9,53.0,29.09,ESE,110,3.6,4.0,45,0.00,,,0.00,LWC V2.10 B1813,2013-10-01 02:58:00,
2013-09-30 22:03:00,75.6,52.7,29.09,ESE,103,4.0,5.4,45,0.00,,,0.00,LWC V2.10 B1813,2013-10-01 03:03:00,
2013-09-30 22:08:00,75.4,52.5,29.09,ESE,106,3.1,5.4,45,0.00,,,0.00,LWC V2.10 B1813,2013-10-01 03:08:00,
2013-09-30 22:13:00,75.4,52.5,29.09,ESE,107,6.3,6.3,45,0.00,,,0.00,LWC V2.10 B1813,2013-10-01 03:13:00,
2013-09-30 22:18:00,75.4,52.5,29.09,East,101,2.7,4.9,45,0.00,,,0.00,LWC V2.10 B1813,2013-10-01 03:18:00,
2013-09-30 22:23:00,75.2,52.4,29.09,East,94,2.7,4.9,45,0.00,,,0.00,LWC V2.10 B1813,2013-10-01 03:23:00,
2013-09-30 22:28:00,75.0,52.8,29.09,East,84,3.1,5.4,46,0.00,,,0.00,LWC V2.10 B1813,2013-10-01 03:28:00,
2013-09-30 22:33:00,74.8,52.7,29.09,ENE,73,2.7,4.9,46,0.00,,,0.00,LWC V2.10 B1813,2013-10-01 03:33:00,
2013-09-30 22:38:00,74.7,53.1,29.12,East,89,3.6,4.9,47,0.00,,,0.00,LWC V2.10 B1813,2013-10-01 03:38:00,
2013-09-30 22:43:00,74.7,53.1,29.12,East,100,3.6,5.8,47,0.00,,,0.00,LWC V2.10 B1813,2013-10-01 03:43:00,
2013-09-30 22:48:00,74.5,52.9,29.09,East,85,2.2,4.9,47,0.00,,,0.00,LWC V2.10 B1813,2013-10-01 03:48:00,
2013-09-30 22:53:00,74.1,53.2,29.09,East,95,3.1,3.1,48,0.00,,,0.00,LWC V2.10 B1813,2013-10-01 03:53:00,
2013-09-30 22:58:00,73.8,52.8,29.09,East,88,2.2,2.2,48,0.00,,,0.00,LWC V2.10 B1813,2013-10-01 03:58:00,
2013-09-30 23:01:00,73.4,52.5,29.09,East,80,2.7,4.9,48,0.00,,,0.00,LWC V2.10 B1813,2013-10-01 04:01:00,
2013-09-30 23:02:00,73.4,52.5,29.09,ENE,77,2.7,3.6,48,0.00,,,0.00,LWC V2.10 B1813,2013-10-01 04:02:00,
2013-09-30 23:07:00,73.2,52.3,29.12,ENE,73,2.2,2.2,48,0.00,,,0.00,LWC V2.10 B1813,2013-10-01 04:07:00,
2013-09-30 23:13:00,72.9,52.0,29.12,East,81,0.0,0.0,48,0.00,,,0.00,LWC V2.10 B1813,2013-10-01 04:13:00,
2013-09-30 23:18:00,72.7,51.8,29.12,East,83,0.0,0.0,48,0.00,,,0.00,LWC V2.10 B1813,2013-10-01 04:18:00,
2013-09-30 23:23:00,72.3,51.5,29.12,East,86,0.0,0.0,48,0.00,,,0.00,LWC V2.10 B1813,2013-10-01 04:23:00,
2013-09-30 23:28:00,72.0,51.2,29.12,East,86,0.0,2.7,48,0.00,,,0.00,LWC V2.10 B1813,2013-10-01 04:28:00,
2013-09-30 23:33:00,71.8,51.0,29.12,East,98,2.7,4.0,48,0.00,,,0.00,LWC V2.10 B1813,2013-10-01 04:33:00,
2013-09-30 23:38:00,71.8,51.0,29.12,East,86,3.1,3.1,48,0.00,,,0.00,LWC V2.10 B1813,2013-10-01 04:38:00,
2013-09-30 23:43:00,71.8,51.0,29.12,East,99,2.7,2.7,48,0.00,,,0.00,LWC V2.10 B1813,2013-10-01 04:43:00,
2013-09-30 23:48:00,72.0,51.2,29.12,NE,54,3.6,3.6,48,0.00,,,0.00,LWC V2.10 B1813,2013-10-01 04:48:00,
2013-09-30 23:53:00,72.1,51.3,29.12,ENE,77,3.1,3.6,48,0.00,,,0.00,LWC V2.10 B1813,2013-10-01 04:53:00,
2013-09-30 23:58:00,72.1,51.3,29.12,East,87,2.7,3.6,48,0.00,,,0.00,LWC V2.10 B1813,2013-10-01 04:58:00,